Terminal Aerodrome Forecast
Issued by NWS

Home | Current Version | Previous Version | Text Only | Print | Product List | Glossary On
Versions: 1 2 3 4 5 6 7 8 9 10 11 12 13 14
000
FTUS45 KTFX 252343 RRA
TAFCTB
TAF
KCTB 252343Z 2600/2624 02011KT P6SM SCT050 BKN080
     FM260900 01011KT P6SM VCSH SCT010 BKN025
     FM261900 18006KT P6SM SCT050 OVC100=

USA.gov is the U.S. government's official web portal to all federal, state and local government web resources and services.